createdAt,value
2019-05-06T00:00:25.349Z,9.00
2019-05-06T00:02:54.663Z,9.00
2019-05-06T00:05:25.395Z,9.00
2019-05-06T00:07:54.731Z,9.00
2019-05-06T00:10:28.651Z,9.00
2019-05-06T00:12:57.540Z,8.90
2019-05-06T00:15:26.416Z,8.90
2019-05-06T00:17:55.127Z,8.90
2019-05-06T00:20:24.382Z,8.90
2019-05-06T00:22:54.904Z,8.90
2019-05-06T00:25:38.010Z,8.90
2019-05-06T00:28:25.235Z,8.80
2019-05-06T00:31:08.642Z,8.70
2019-05-06T00:33:26.064Z,8.60
2019-05-06T00:35:54.876Z,8.60
2019-05-06T00:38:24.633Z,8.50
2019-05-06T00:40:58.157Z,8.40
2019-05-06T00:43:27.074Z,8.30
2019-05-06T00:45:55.919Z,8.30
2019-05-06T00:48:24.647Z,8.30
2019-05-06T00:50:53.668Z,8.20
2019-05-06T00:53:26.904Z,8.10
2019-05-06T00:55:55.620Z,8.10
2019-05-06T00:58:24.622Z,8.10
2019-05-06T01:00:54.038Z,8.00
2019-05-06T01:03:23.927Z,8.00
2019-05-06T01:05:54.159Z,8.00
2019-05-06T01:08:24.054Z,8.00
2019-05-06T01:10:54.431Z,8.00
2019-05-06T01:13:28.074Z,8.00
2019-05-06T01:15:56.798Z,8.00
2019-05-06T01:18:25.731Z,8.00
2019-05-06T01:20:56.125Z,8.00
2019-05-06T01:23:24.836Z,8.00
2019-05-06T01:25:54.564Z,7.90
2019-05-06T01:28:24.498Z,7.90
2019-05-06T01:30:53.637Z,7.90
2019-05-06T01:33:24.173Z,7.80
2019-05-06T01:35:54.181Z,7.80
2019-05-06T01:38:30.467Z,7.80
2019-05-06T01:41:00.797Z,7.70
2019-05-06T01:43:37.209Z,7.70
2019-05-06T01:46:05.923Z,7.60
2019-05-06T01:48:50.288Z,7.60
2019-05-06T01:51:20.172Z,7.60
2019-05-06T01:53:50.043Z,7.70
2019-05-06T01:56:19.939Z,7.70
2019-05-06T01:58:48.660Z,7.60
2019-05-06T02:01:17.478Z,7.60
2019-05-06T02:03:46.375Z,7.60
2019-05-06T02:06:15.095Z,7.60
2019-05-06T02:08:44.952Z,7.60
2019-05-06T02:11:14.890Z,7.50
2019-05-06T02:13:44.404Z,7.50
2019-05-06T02:16:14.625Z,7.50
2019-05-06T02:18:44.854Z,7.50
2019-05-06T02:21:18.134Z,7.50
2019-05-06T02:23:48.420Z,7.40
2019-05-06T02:26:18.178Z,7.40
2019-05-06T02:28:48.569Z,7.40
2019-05-06T02:31:35.548Z,7.30
2019-05-06T02:34:08.637Z,7.30
2019-05-06T02:36:55.426Z,7.30
2019-05-06T02:39:24.472Z,7.30
2019-05-06T02:41:54.962Z,7.30
2019-05-06T02:44:24.166Z,7.20
2019-05-06T02:46:54.556Z,7.20
2019-05-06T02:49:27.890Z,7.20
2019-05-06T02:51:56.909Z,7.20
2019-05-06T02:54:25.779Z,7.20
2019-05-06T02:56:54.558Z,7.20
2019-05-06T02:59:24.230Z,7.10
2019-05-06T03:01:53.881Z,7.10
2019-05-06T03:04:23.625Z,7.10
2019-05-06T03:06:53.388Z,7.10
2019-05-06T03:09:25.265Z,7.10
2019-05-06T03:11:54.295Z,7.10
2019-05-06T03:14:23.602Z,7.10
2019-05-06T03:16:53.679Z,7.00
2019-05-06T03:19:24.167Z,7.00
2019-05-06T03:22:13.344Z,7.00
2019-05-06T03:24:45.613Z,7.00
2019-05-06T03:27:14.953Z,6.90
2019-05-06T03:29:44.478Z,6.90
2019-05-06T03:32:16.469Z,6.90
2019-05-06T03:35:01.258Z,6.90
2019-05-06T03:37:16.896Z,6.90
2019-05-06T03:39:44.819Z,6.90
2019-05-06T03:42:16.321Z,6.90
2019-05-06T03:44:45.744Z,6.90
2019-05-06T03:47:25.039Z,6.90
2019-05-06T03:49:54.800Z,6.90
2019-05-06T03:52:24.003Z,6.90
2019-05-06T03:54:53.911Z,6.80
2019-05-06T03:57:23.490Z,6.80
2019-05-06T03:59:53.043Z,6.80
2019-05-06T04:02:24.113Z,6.70
2019-05-06T04:04:55.895Z,6.70
2019-05-06T04:07:23.548Z,6.70
2019-05-06T04:09:53.437Z,6.80
2019-05-06T04:12:23.484Z,6.80
2019-05-06T04:14:53.889Z,6.80
2019-05-06T04:17:37.064Z,6.80
2019-05-06T04:20:16.505Z,6.70
2019-05-06T04:22:53.253Z,6.70
2019-05-06T04:25:43.631Z,6.70
2019-05-06T04:28:14.103Z,6.60
2019-05-06T04:30:43.250Z,6.60
2019-05-06T04:33:16.464Z,6.60
2019-05-06T04:35:43.156Z,6.60
2019-05-06T04:38:13.905Z,6.60
2019-05-06T04:40:43.993Z,6.70
2019-05-06T04:43:13.615Z,6.70
2019-05-06T04:45:43.318Z,6.70
2019-05-06T04:48:14.234Z,6.70
2019-05-06T04:50:44.398Z,6.80
2019-05-06T04:53:13.826Z,6.80
2019-05-06T04:55:43.908Z,6.90
2019-05-06T04:58:14.013Z,6.90
2019-05-06T05:00:44.474Z,7.00
2019-05-06T05:03:13.981Z,7.00
2019-05-06T05:05:44.884Z,7.10
2019-05-06T05:08:14.743Z,7.10
2019-05-06T05:10:53.045Z,7.20
2019-05-06T05:13:29.391Z,7.20
2019-05-06T05:16:08.903Z,7.30
2019-05-06T05:18:39.167Z,7.30
2019-05-06T05:21:08.045Z,7.40
2019-05-06T05:23:36.822Z,7.50
2019-05-06T05:26:06.238Z,7.50
2019-05-06T05:28:35.038Z,7.50
2019-05-06T05:31:03.832Z,7.60
2019-05-06T05:33:32.848Z,7.60
2019-05-06T05:36:02.077Z,8.90
2019-05-06T05:38:32.146Z,9.70
2019-05-06T05:41:03.038Z,9.90
2019-05-06T05:43:33.332Z,10.20
2019-05-06T05:46:03.024Z,10.50
2019-05-06T05:48:37.487Z,10.80
2019-05-06T05:51:06.232Z,11.20
2019-05-06T05:53:35.003Z,11.50
2019-05-06T05:56:04.665Z,11.60
2019-05-06T05:58:33.495Z,11.80
2019-05-06T06:01:04.188Z,12.00
2019-05-06T06:03:32.710Z,12.20
2019-05-06T06:06:03.068Z,12.30
2019-05-06T06:08:32.379Z,12.30
2019-05-06T06:11:05.401Z,12.10
2019-05-06T06:13:34.108Z,11.80
2019-05-06T06:16:23.239Z,11.80
2019-05-06T06:19:08.491Z,11.90
2019-05-06T06:21:44.484Z,12.30
2019-05-06T06:24:14.776Z,12.40
2019-05-06T06:26:43.496Z,12.10
2019-05-06T06:29:12.586Z,11.60
2019-05-06T06:31:46.110Z,11.40
2019-05-06T06:34:22.581Z,11.40
2019-05-06T06:36:56.063Z,11.30
2019-05-06T06:39:32.541Z,11.40
2019-05-06T06:42:02.769Z,11.20
2019-05-06T06:44:33.099Z,11.10
2019-05-06T06:47:02.200Z,11.10
2019-05-06T06:49:32.756Z,11.20
2019-05-06T06:52:02.723Z,11.00
2019-05-06T06:54:32.313Z,11.20
2019-05-06T06:57:17.337Z,11.50
2019-05-06T06:59:48.571Z,11.60
2019-05-06T07:02:28.052Z,12.00
2019-05-06T07:04:58.505Z,12.00
2019-05-06T07:07:40.389Z,11.90
2019-05-06T07:09:59.155Z,12.00
2019-05-06T07:12:27.957Z,12.10
2019-05-06T07:15:02.966Z,12.10
2019-05-06T07:17:32.824Z,12.30
2019-05-06T07:20:06.259Z,12.20
2019-05-06T07:22:37.925Z,12.40
2019-05-06T07:25:08.144Z,12.70
2019-05-06T07:27:36.924Z,12.60
2019-05-06T07:30:07.606Z,12.70
2019-05-06T07:32:36.360Z,12.80
2019-05-06T07:35:06.313Z,13.10
2019-05-06T07:37:35.156Z,13.30
2019-05-06T07:40:04.947Z,13.40
2019-05-06T07:42:42.551Z,13.30
2019-05-06T07:45:12.808Z,13.50
2019-05-06T07:47:49.692Z,13.40
2019-05-06T07:50:18.414Z,13.20
2019-05-06T07:53:05.175Z,13.10
2019-05-06T07:55:33.896Z,13.10
2019-05-06T07:58:03.035Z,13.00
2019-05-06T08:00:32.728Z,13.00
2019-05-06T08:03:02.560Z,13.20
2019-05-06T08:05:32.425Z,13.40
2019-05-06T08:08:03.477Z,13.70
2019-05-06T08:10:33.158Z,13.90
2019-05-06T08:13:02.839Z,13.70
2019-05-06T08:15:33.060Z,13.40
2019-05-06T08:18:03.366Z,13.40
2019-05-06T08:20:38.137Z,13.50
2019-05-06T08:23:24.770Z,13.70
2019-05-06T08:26:08.829Z,13.70
2019-05-06T08:28:37.566Z,13.40
2019-05-06T08:30:55.106Z,13.80
2019-05-06T08:33:23.810Z,13.80
2019-05-06T08:35:54.551Z,13.90
2019-05-06T08:38:22.951Z,13.90
2019-05-06T08:40:52.605Z,14.10
2019-05-06T08:43:22.045Z,14.30
2019-05-06T08:45:52.855Z,14.50
2019-05-06T08:48:22.142Z,14.40
2019-05-06T08:50:55.167Z,14.60
2019-05-06T08:53:25.513Z,14.40
2019-05-06T08:55:55.680Z,14.50
2019-05-06T08:58:25.954Z,14.60
2019-05-06T09:00:58.817Z,14.80
2019-05-06T09:03:27.618Z,14.80
2019-05-06T09:05:56.439Z,14.70
2019-05-06T09:08:25.355Z,14.70
2019-05-06T09:10:54.189Z,14.80
2019-05-06T09:13:23.309Z,14.80
2019-05-06T09:15:52.652Z,14.80
2019-05-06T09:18:23.900Z,14.90
2019-05-06T09:20:53.620Z,15.20
2019-05-06T09:23:22.776Z,15.30
2019-05-06T09:25:53.080Z,15.30
2019-05-06T09:28:33.930Z,15.30
2019-05-06T09:31:09.628Z,15.70
2019-05-06T09:33:42.526Z,15.50
2019-05-06T09:36:12.754Z,15.50
2019-05-06T09:38:42.456Z,15.50
2019-05-06T09:41:12.442Z,15.80
2019-05-06T09:43:43.401Z,15.80
2019-05-06T09:46:12.911Z,15.90
2019-05-06T09:48:43.468Z,16.20
2019-05-06T09:51:13.063Z,16.10
2019-05-06T09:54:04.086Z,16.20
2019-05-06T09:56:45.536Z,16.30
2019-05-06T09:59:14.327Z,16.50
2019-05-06T10:01:44.901Z,16.20
2019-05-06T10:04:13.633Z,16.20
2019-05-06T10:06:55.712Z,16.30
2019-05-06T10:09:15.920Z,16.40
2019-05-06T10:11:43.997Z,16.70
2019-05-06T10:14:13.070Z,16.80
2019-05-06T10:16:42.983Z,16.90
2019-05-06T10:19:13.171Z,17.20
2019-05-06T10:21:43.147Z,17.30
2019-05-06T10:24:12.031Z,17.40
2019-05-06T10:26:47.555Z,17.30
2019-05-06T10:29:26.979Z,17.30
2019-05-06T10:32:12.420Z,17.20
2019-05-06T10:34:43.307Z,17.00
2019-05-06T10:37:30.172Z,17.30
2019-05-06T10:40:19.683Z,17.50
2019-05-06T10:42:52.385Z,17.60
2019-05-06T10:45:28.698Z,17.60
2019-05-06T10:47:57.496Z,17.50
2019-05-06T10:50:27.515Z,17.20
2019-05-06T10:53:03.664Z,17.00
2019-05-06T10:55:32.644Z,16.40
2019-05-06T10:58:02.630Z,16.50
2019-05-06T11:00:33.141Z,16.60
2019-05-06T11:03:06.389Z,16.70
2019-05-06T11:05:35.100Z,17.10
2019-05-06T11:08:04.817Z,17.10
2019-05-06T11:10:40.782Z,17.30
2019-05-06T11:13:04.834Z,17.30
2019-05-06T11:15:33.608Z,17.60
2019-05-06T11:18:04.775Z,18.00
2019-05-06T11:20:34.017Z,18.20
2019-05-06T11:23:03.637Z,18.30
2019-05-06T11:25:32.766Z,18.70
2019-05-06T11:28:02.912Z,18.80
2019-05-06T11:30:39.679Z,18.90
2019-05-06T11:33:27.113Z,19.10
2019-05-06T11:36:04.628Z,18.70
2019-05-06T11:38:33.387Z,18.30
2019-05-06T11:41:02.128Z,17.80
2019-05-06T11:43:32.436Z,17.70
2019-05-06T11:46:01.332Z,17.50
2019-05-06T11:48:30.049Z,17.30
2019-05-06T11:51:00.482Z,17.30
2019-05-06T11:53:29.200Z,16.90
2019-05-06T11:55:57.906Z,16.80
2019-05-06T11:58:42.491Z,16.60
2019-05-06T12:01:28.100Z,16.50
2019-05-06T12:03:57.816Z,16.50
2019-05-06T12:06:26.530Z,16.30
2019-05-06T12:08:55.334Z,16.20
2019-05-06T12:11:24.090Z,16.20
2019-05-06T12:13:53.329Z,16.20
2019-05-06T12:16:26.006Z,16.10
2019-05-06T12:18:53.126Z,16.20
2019-05-06T12:21:23.189Z,16.10
2019-05-06T12:23:53.791Z,16.00
2019-05-06T12:26:22.818Z,15.90
2019-05-06T12:28:53.173Z,15.80
2019-05-06T12:31:23.332Z,15.80
2019-05-06T12:33:53.319Z,15.80
2019-05-06T12:36:23.040Z,15.90
2019-05-06T12:39:09.899Z,15.90
2019-05-06T12:41:42.881Z,16.00
2019-05-06T12:44:13.160Z,16.00
2019-05-06T12:46:45.352Z,16.10
2019-05-06T12:49:14.169Z,16.10
2019-05-06T12:51:43.438Z,16.20
2019-05-06T12:54:12.876Z,16.30
2019-05-06T12:56:42.513Z,16.10
2019-05-06T12:59:12.750Z,16.20
2019-05-06T13:01:45.317Z,16.00
2019-05-06T13:04:13.546Z,15.90
2019-05-06T13:06:46.146Z,16.10
2019-05-06T13:09:13.101Z,16.20
2019-05-06T13:11:43.076Z,16.50
2019-05-06T13:14:12.864Z,16.50
2019-05-06T13:16:42.558Z,16.60
2019-05-06T13:19:12.150Z,16.80
2019-05-06T13:21:42.275Z,16.60
2019-05-06T13:24:12.122Z,16.60
2019-05-06T13:26:43.106Z,16.70
2019-05-06T13:29:13.327Z,16.80
2019-05-06T13:31:43.479Z,16.90
2019-05-06T13:34:17.120Z,17.00
2019-05-06T13:36:46.159Z,16.90
2019-05-06T13:39:15.538Z,16.70
2019-05-06T13:41:44.297Z,16.70
2019-05-06T13:44:14.316Z,16.60
2019-05-06T13:46:47.640Z,16.60
2019-05-06T13:49:29.800Z,16.40
2019-05-06T13:52:04.494Z,16.30
2019-05-06T13:54:33.749Z,16.10
2019-05-06T13:57:02.980Z,16.10
2019-05-06T13:59:34.726Z,16.00
2019-05-06T14:02:07.154Z,15.90
2019-05-06T14:04:34.558Z,16.00
2019-05-06T14:07:06.436Z,16.00
2019-05-06T14:09:39.921Z,15.90
2019-05-06T14:12:05.404Z,15.90
2019-05-06T14:14:34.185Z,15.80
2019-05-06T14:17:02.912Z,15.80
2019-05-06T14:19:33.237Z,15.80
2019-05-06T14:22:02.962Z,15.90
2019-05-06T14:24:32.848Z,15.90
2019-05-06T14:27:06.259Z,16.00
2019-05-06T14:29:53.289Z,15.90
2019-05-06T14:32:23.654Z,15.90
2019-05-06T14:34:53.164Z,15.90
2019-05-06T14:37:22.710Z,16.10
2019-05-06T14:39:58.879Z,16.00
2019-05-06T14:42:23.738Z,16.10
2019-05-06T14:44:52.739Z,16.20
2019-05-06T14:47:23.392Z,16.10
2019-05-06T14:49:53.106Z,16.10
2019-05-06T14:52:22.887Z,16.20
2019-05-06T14:54:53.868Z,16.40
2019-05-06T14:57:23.456Z,16.40
2019-05-06T14:59:55.503Z,16.30
2019-05-06T15:02:26.216Z,16.40
2019-05-06T15:04:55.254Z,16.40
2019-05-06T15:07:24.030Z,16.40
2019-05-06T15:10:07.653Z,16.40
2019-05-06T15:12:23.489Z,16.30
2019-05-06T15:14:52.875Z,16.20
2019-05-06T15:17:23.012Z,16.20
2019-05-06T15:19:52.790Z,16.20
2019-05-06T15:22:22.745Z,16.10
2019-05-06T15:24:53.706Z,16.10
2019-05-06T15:27:23.017Z,16.00
2019-05-06T15:29:54.832Z,16.00
2019-05-06T15:32:25.108Z,15.90
2019-05-06T15:34:56.332Z,15.80
2019-05-06T15:37:26.787Z,15.70
2019-05-06T15:39:56.079Z,15.60
2019-05-06T15:42:24.824Z,15.60
2019-05-06T15:44:53.592Z,15.60
2019-05-06T15:47:22.797Z,15.60
2019-05-06T15:49:52.795Z,15.60
2019-05-06T15:52:23.451Z,15.50
2019-05-06T15:54:52.675Z,15.40
2019-05-06T15:57:22.941Z,15.30
2019-05-06T15:59:53.158Z,15.30
2019-05-06T16:02:23.361Z,15.30
2019-05-06T16:04:52.539Z,15.20
2019-05-06T16:07:25.340Z,15.20
2019-05-06T16:09:54.994Z,15.10
2019-05-06T16:12:23.159Z,15.00
2019-05-06T16:14:53.059Z,15.00
2019-05-06T16:17:23.760Z,15.10
2019-05-06T16:19:52.699Z,15.20
2019-05-06T16:22:22.579Z,15.20
2019-05-06T16:25:02.737Z,15.30
2019-05-06T16:27:31.644Z,15.30
2019-05-06T16:30:03.427Z,15.40
2019-05-06T16:32:33.256Z,15.30
2019-05-06T16:35:01.789Z,15.40
2019-05-06T16:37:32.857Z,15.60
2019-05-06T16:40:02.833Z,15.70
2019-05-06T16:42:32.149Z,16.00
2019-05-06T16:45:06.876Z,16.00
2019-05-06T16:47:38.552Z,15.90
2019-05-06T16:50:13.312Z,16.10
2019-05-06T16:52:45.073Z,16.00
2019-05-06T16:55:14.228Z,15.90
2019-05-06T16:57:44.732Z,15.90
2019-05-06T17:00:15.041Z,15.80
2019-05-06T17:02:55.940Z,15.70
2019-05-06T17:05:17.611Z,15.70
2019-05-06T17:07:47.533Z,15.70
2019-05-06T17:10:16.243Z,15.60
2019-05-06T17:12:45.227Z,15.50
2019-05-06T17:15:14.176Z,15.50
2019-05-06T17:17:46.759Z,15.50
2019-05-06T17:20:13.512Z,15.40
2019-05-06T17:22:42.396Z,15.30
2019-05-06T17:25:11.258Z,15.20
2019-05-06T17:27:43.297Z,15.20
2019-05-06T17:30:18.059Z,15.10
2019-05-06T17:32:48.381Z,15.00
2019-05-06T17:35:17.138Z,15.00
2019-05-06T17:37:53.400Z,14.90
2019-05-06T17:40:23.251Z,14.80
2019-05-06T17:42:53.465Z,14.80
2019-05-06T17:45:43.017Z,14.80
2019-05-06T17:48:13.821Z,14.80
2019-05-06T17:50:44.387Z,14.80
2019-05-06T17:53:14.094Z,14.70
2019-05-06T17:55:43.342Z,14.70
2019-05-06T17:58:13.014Z,14.70
2019-05-06T18:00:42.935Z,14.70
2019-05-06T18:03:11.896Z,14.60
2019-05-06T18:05:42.201Z,14.70
2019-05-06T18:08:12.855Z,14.60
2019-05-06T18:10:42.675Z,14.60
2019-05-06T18:13:12.514Z,14.70
2019-05-06T18:15:43.101Z,14.60
2019-05-06T18:18:13.014Z,14.60
2019-05-06T18:20:42.736Z,14.50
2019-05-06T18:23:12.933Z,14.50
2019-05-06T18:25:43.111Z,14.50
2019-05-06T18:28:12.323Z,14.40
2019-05-06T18:30:41.227Z,14.40
2019-05-06T18:33:10.095Z,14.40
2019-05-06T18:35:38.836Z,14.40
2019-05-06T18:38:07.606Z,14.30
2019-05-06T18:40:36.460Z,14.30
2019-05-06T18:43:05.270Z,14.20
2019-05-06T18:45:35.156Z,14.20
2019-05-06T18:48:03.972Z,14.20
2019-05-06T18:50:32.726Z,14.20
2019-05-06T18:53:02.458Z,14.20
2019-05-06T18:55:33.045Z,14.10
2019-05-06T18:58:02.313Z,14.10
2019-05-06T19:00:31.995Z,14.00
2019-05-06T19:03:02.625Z,14.10
2019-05-06T19:05:34.890Z,14.00
2019-05-06T19:08:05.428Z,14.00
2019-05-06T19:10:34.447Z,14.00
2019-05-06T19:13:03.202Z,14.00
2019-05-06T19:15:33.683Z,13.90
2019-05-06T19:18:02.495Z,14.00
2019-05-06T19:20:33.876Z,13.90
2019-05-06T19:23:02.429Z,13.90
2019-05-06T19:25:33.908Z,13.90
2019-05-06T19:28:02.265Z,13.90
2019-05-06T19:30:32.356Z,13.80
2019-05-06T19:33:02.935Z,13.80
2019-05-06T19:35:36.561Z,13.80
2019-05-06T19:38:05.047Z,13.80
2019-05-06T19:40:33.251Z,13.80
2019-05-06T19:43:03.001Z,13.80
2019-05-06T19:45:34.387Z,13.80
2019-05-06T19:48:02.892Z,13.70
2019-05-06T19:50:33.049Z,13.70
2019-05-06T19:53:01.944Z,13.70
2019-05-06T19:55:30.670Z,13.70
2019-05-06T19:57:59.709Z,13.70
2019-05-06T20:00:28.589Z,13.60
2019-05-06T20:02:57.528Z,13.60
2019-05-06T20:05:30.530Z,13.60
2019-05-06T20:08:06.559Z,13.60
2019-05-06T20:10:42.788Z,13.60
2019-05-06T20:13:13.486Z,13.60
2019-05-06T20:15:42.831Z,13.60
2019-05-06T20:18:11.615Z,13.40
2019-05-06T20:20:42.392Z,13.50
2019-05-06T20:23:12.560Z,13.50
2019-05-06T20:25:42.587Z,13.50
2019-05-06T20:28:13.123Z,13.50
2019-05-06T20:30:42.361Z,13.40
2019-05-06T20:33:12.515Z,13.40
2019-05-06T20:35:43.243Z,13.40
2019-05-06T20:38:12.335Z,13.30
2019-05-06T20:40:43.076Z,13.30
2019-05-06T20:43:17.508Z,13.20
2019-05-06T20:45:42.898Z,13.20
2019-05-06T20:48:12.902Z,13.10
2019-05-06T20:50:42.866Z,13.10
2019-05-06T20:53:12.225Z,13.10
2019-05-06T20:55:43.122Z,13.00
2019-05-06T20:58:12.346Z,13.00
2019-05-06T21:00:42.978Z,12.90
2019-05-06T21:03:12.255Z,12.90
2019-05-06T21:05:43.203Z,12.80
2019-05-06T21:08:12.927Z,12.70
2019-05-06T21:10:42.585Z,12.70
2019-05-06T21:13:13.407Z,12.60
2019-05-06T21:15:43.271Z,12.50
2019-05-06T21:18:12.450Z,12.50
2019-05-06T21:20:43.367Z,12.40
2019-05-06T21:23:11.815Z,12.30
2019-05-06T21:25:42.827Z,12.30
2019-05-06T21:28:12.162Z,12.30
2019-05-06T21:30:42.863Z,12.30
2019-05-06T21:33:12.465Z,12.30
2019-05-06T21:35:42.367Z,12.30
2019-05-06T21:38:12.145Z,12.20
2019-05-06T21:40:43.168Z,12.20
2019-05-06T21:43:13.003Z,12.20
2019-05-06T21:45:42.946Z,12.20
2019-05-06T21:48:13.623Z,12.10
2019-05-06T21:50:42.762Z,12.10
2019-05-06T21:53:14.767Z,12.00
2019-05-06T21:55:43.333Z,12.00
2019-05-06T21:58:12.543Z,11.90
2019-05-06T22:00:43.517Z,11.80
2019-05-06T22:03:13.392Z,11.80
2019-05-06T22:05:42.652Z,11.70
2019-05-06T22:08:12.959Z,11.70
2019-05-06T22:10:42.251Z,11.60
2019-05-06T22:13:14.236Z,11.60
2019-05-06T22:15:42.342Z,11.60
2019-05-06T22:18:12.514Z,11.60
2019-05-06T22:20:59.547Z,11.50
2019-05-06T22:23:29.979Z,11.50
2019-05-06T22:26:11.314Z,11.40
2019-05-06T22:28:31.903Z,11.40
2019-05-06T22:31:02.896Z,11.40
2019-05-06T22:33:31.833Z,11.30
2019-05-06T22:36:02.235Z,11.30
2019-05-06T22:38:31.229Z,11.20
2019-05-06T22:40:59.954Z,11.20
2019-05-06T22:43:28.951Z,11.10
2019-05-06T22:45:57.676Z,11.10
2019-05-06T22:48:26.588Z,11.10
2019-05-06T22:50:55.360Z,11.00
2019-05-06T22:53:24.878Z,11.00
2019-05-06T22:55:55.182Z,10.90
2019-05-06T22:58:24.158Z,10.90
2019-05-06T23:00:54.381Z,10.90
2019-05-06T23:03:31.719Z,10.90
2019-05-06T23:06:02.534Z,10.90
2019-05-06T23:08:32.474Z,10.90
2019-05-06T23:11:01.326Z,10.90
2019-05-06T23:13:30.104Z,10.90
2019-05-06T23:15:59.027Z,10.90
2019-05-06T23:18:27.742Z,10.90
2019-05-06T23:20:56.527Z,10.90
2019-05-06T23:23:25.384Z,10.90
2019-05-06T23:26:13.045Z,10.90
2019-05-06T23:28:43.655Z,10.90
2019-05-06T23:31:12.338Z,10.80
2019-05-06T23:33:42.858Z,10.80
2019-05-06T23:36:12.107Z,10.80
2019-05-06T23:39:17.189Z,10.70
2019-05-06T23:42:22.794Z,10.70
2019-05-06T23:45:27.877Z,10.70
2019-05-06T23:48:32.771Z,10.60
2019-05-06T23:51:37.703Z,10.60
2019-05-06T23:54:42.858Z,10.60
2019-05-06T23:57:10.726Z,10.50
2019-05-06T23:59:39.467Z,10.50
